sensor_id;sensor_type;location;lat;lon;timestamp;P1;durP1;ratioP1;P2;durP2;ratioP2
66145;SDS011;52948;60.040;30.320;2023-12-22T00:04:43;9.88;;;5.20;;
66145;SDS011;52948;60.040;30.320;2023-12-22T00:09:46;9.18;;;4.78;;
66145;SDS011;52948;60.040;30.320;2023-12-22T00:14:48;6.45;;;3.40;;
66145;SDS011;52948;60.040;30.320;2023-12-22T00:19:50;8.18;;;4.22;;
66145;SDS011;52948;60.040;30.320;2023-12-22T00:24:53;4.03;;;1.77;;
66145;SDS011;52948;60.040;30.320;2023-12-22T00:29:55;9.20;;;5.68;;
66145;SDS011;52948;60.040;30.320;2023-12-22T00:34:57;5.03;;;3.03;;
66145;SDS011;52948;60.040;30.320;2023-12-22T00:40:00;7.50;;;4.43;;
66145;SDS011;52948;60.040;30.320;2023-12-22T00:45:03;9.10;;;5.50;;
66145;SDS011;52948;60.040;30.320;2023-12-22T00:50:05;7.72;;;4.28;;
66145;SDS011;52948;60.040;30.320;2023-12-22T00:55:10;5.85;;;3.58;;
66145;SDS011;52948;60.040;30.320;2023-12-22T01:00:13;8.75;;;4.90;;
66145;SDS011;52948;60.040;30.320;2023-12-22T01:05:16;8.45;;;5.15;;
66145;SDS011;52948;60.040;30.320;2023-12-22T01:10:18;3.47;;;1.92;;
66145;SDS011;52948;60.040;30.320;2023-12-22T01:15:21;8.05;;;4.82;;
66145;SDS011;52948;60.040;30.320;2023-12-22T01:20:24;11.88;;;5.35;;
66145;SDS011;52948;60.040;30.320;2023-12-22T01:25:26;10.90;;;5.45;;
66145;SDS011;52948;60.040;30.320;2023-12-22T01:30:29;16.27;;;7.38;;
66145;SDS011;52948;60.040;30.320;2023-12-22T01:35:31;17.13;;;8.15;;
66145;SDS011;52948;60.040;30.320;2023-12-22T01:40:34;21.00;;;9.60;;
66145;SDS011;52948;60.040;30.320;2023-12-22T01:45:37;23.85;;;10.63;;
66145;SDS011;52948;60.040;30.320;2023-12-22T01:50:40;23.73;;;10.65;;
66145;SDS011;52948;60.040;30.320;2023-12-22T01:55:43;22.55;;;10.13;;
66145;SDS011;52948;60.040;30.320;2023-12-22T02:00:48;21.27;;;9.63;;
66145;SDS011;52948;60.040;30.320;2023-12-22T02:05:50;24.92;;;13.38;;
66145;SDS011;52948;60.040;30.320;2023-12-22T02:10:52;23.73;;;11.00;;
66145;SDS011;52948;60.040;30.320;2023-12-22T02:16:00;19.67;;;8.15;;
66145;SDS011;52948;60.040;30.320;2023-12-22T02:21:05;15.75;;;6.78;;
66145;SDS011;52948;60.040;30.320;2023-12-22T02:26:16;9.88;;;4.13;;
66145;SDS011;52948;60.040;30.320;2023-12-22T02:31:27;16.38;;;8.23;;
66145;SDS011;52948;60.040;30.320;2023-12-22T02:36:47;17.20;;;7.38;;
66145;SDS011;52948;60.040;30.320;2023-12-22T02:41:49;8.15;;;4.10;;
66145;SDS011;52948;60.040;30.320;2023-12-22T02:46:52;5.35;;;2.58;;
66145;SDS011;52948;60.040;30.320;2023-12-22T02:51:54;13.45;;;7.65;;
66145;SDS011;52948;60.040;30.320;2023-12-22T02:56:56;6.90;;;4.50;;
66145;SDS011;52948;60.040;30.320;2023-12-22T03:02:01;8.27;;;4.38;;
66145;SDS011;52948;60.040;30.320;2023-12-22T03:07:04;12.80;;;7.15;;
66145;SDS011;52948;60.040;30.320;2023-12-22T03:12:06;11.10;;;5.05;;
66145;SDS011;52948;60.040;30.320;2023-12-22T03:17:10;10.93;;;5.70;;
66145;SDS011;52948;60.040;30.320;2023-12-22T03:22:13;11.05;;;5.20;;
66145;SDS011;52948;60.040;30.320;2023-12-22T03:27:15;8.63;;;4.93;;
66145;SDS011;52948;60.040;30.320;2023-12-22T03:32:19;8.93;;;4.75;;
66145;SDS011;52948;60.040;30.320;2023-12-22T03:37:22;8.93;;;5.07;;
66145;SDS011;52948;60.040;30.320;2023-12-22T03:42:25;8.68;;;4.25;;
66145;SDS011;52948;60.040;30.320;2023-12-22T03:47:27;9.15;;;5.00;;
66145;SDS011;52948;60.040;30.320;2023-12-22T03:52:29;8.45;;;4.75;;
66145;SDS011;52948;60.040;30.320;2023-12-22T03:57:32;8.27;;;4.00;;
66145;SDS011;52948;60.040;30.320;2023-12-22T04:02:34;9.30;;;5.97;;
66145;SDS011;52948;60.040;30.320;2023-12-22T04:07:38;9.25;;;5.63;;
66145;SDS011;52948;60.040;30.320;2023-12-22T04:12:41;8.65;;;5.30;;
66145;SDS011;52948;60.040;30.320;2023-12-22T04:17:43;5.93;;;3.38;;
66145;SDS011;52948;60.040;30.320;2023-12-22T04:22:46;7.38;;;3.92;;
66145;SDS011;52948;60.040;30.320;2023-12-22T04:27:52;7.47;;;4.72;;
66145;SDS011;52948;60.040;30.320;2023-12-22T04:32:54;4.68;;;3.25;;
66145;SDS011;52948;60.040;30.320;2023-12-22T04:37:58;8.68;;;4.97;;
66145;SDS011;52948;60.040;30.320;2023-12-22T04:43:01;6.00;;;1.92;;
66145;SDS011;52948;60.040;30.320;2023-12-22T04:48:04;6.60;;;3.90;;
66145;SDS011;52948;60.040;30.320;2023-12-22T04:53:07;7.57;;;4.75;;
66145;SDS011;52948;60.040;30.320;2023-12-22T04:58:10;7.80;;;4.32;;
66145;SDS011;52948;60.040;30.320;2023-12-22T05:03:12;5.35;;;2.92;;
66145;SDS011;52948;60.040;30.320;2023-12-22T05:08:14;8.50;;;4.43;;
66145;SDS011;52948;60.040;30.320;2023-12-22T05:13:18;7.53;;;3.25;;
66145;SDS011;52948;60.040;30.320;2023-12-22T05:18:20;3.55;;;2.78;;
66145;SDS011;52948;60.040;30.320;2023-12-22T05:23:23;5.50;;;2.85;;
66145;SDS011;52948;60.040;30.320;2023-12-22T05:28:26;6.55;;;3.75;;
66145;SDS011;52948;60.040;30.320;2023-12-22T05:33:28;7.22;;;4.30;;
66145;SDS011;52948;60.040;30.320;2023-12-22T05:38:30;6.53;;;3.53;;
66145;SDS011;52948;60.040;30.320;2023-12-22T05:43:34;5.38;;;2.90;;
66145;SDS011;52948;60.040;30.320;2023-12-22T05:48:36;4.60;;;3.03;;
66145;SDS011;52948;60.040;30.320;2023-12-22T05:53:39;4.63;;;2.38;;
66145;SDS011;52948;60.040;30.320;2023-12-22T05:58:42;6.93;;;4.38;;
66145;SDS011;52948;60.040;30.320;2023-12-22T06:03:45;4.50;;;2.70;;
66145;SDS011;52948;60.040;30.320;2023-12-22T06:08:48;8.25;;;4.05;;
66145;SDS011;52948;60.040;30.320;2023-12-22T06:13:51;7.82;;;3.75;;
66145;SDS011;52948;60.040;30.320;2023-12-22T06:18:53;2.85;;;1.60;;
66145;SDS011;52948;60.040;30.320;2023-12-22T06:23:55;7.40;;;4.10;;
66145;SDS011;52948;60.040;30.320;2023-12-22T06:28:59;5.30;;;3.30;;
66145;SDS011;52948;60.040;30.320;2023-12-22T06:34:01;3.03;;;1.85;;
66145;SDS011;52948;60.040;30.320;2023-12-22T06:39:05;3.92;;;2.47;;
66145;SDS011;52948;60.040;30.320;2023-12-22T06:44:08;4.20;;;2.78;;
66145;SDS011;52948;60.040;30.320;2023-12-22T06:49:12;5.57;;;3.30;;
66145;SDS011;52948;60.040;30.320;2023-12-22T06:54:15;3.70;;;2.03;;
66145;SDS011;52948;60.040;30.320;2023-12-22T06:59:18;7.03;;;4.20;;
66145;SDS011;52948;60.040;30.320;2023-12-22T07:04:21;1.67;;;1.38;;
66145;SDS011;52948;60.040;30.320;2023-12-22T07:14:27;4.57;;;2.72;;
66145;SDS011;52948;60.040;30.320;2023-12-22T07:19:29;5.22;;;3.25;;
66145;SDS011;52948;60.040;30.320;2023-12-22T07:24:33;5.30;;;3.58;;
66145;SDS011;52948;60.040;30.320;2023-12-22T07:29:37;6.32;;;3.72;;
66145;SDS011;52948;60.040;30.320;2023-12-22T07:34:39;5.55;;;3.83;;
66145;SDS011;52948;60.040;30.320;2023-12-22T07:39:41;4.85;;;3.10;;
66145;SDS011;52948;60.040;30.320;2023-12-22T07:44:46;5.57;;;4.43;;
66145;SDS011;52948;60.040;30.320;2023-12-22T07:49:50;6.03;;;4.18;;
66145;SDS011;52948;60.040;30.320;2023-12-22T07:54:54;5.97;;;4.20;;
66145;SDS011;52948;60.040;30.320;2023-12-22T07:59:57;6.22;;;4.55;;
66145;SDS011;52948;60.040;30.320;2023-12-22T08:05:00;5.13;;;3.65;;
66145;SDS011;52948;60.040;30.320;2023-12-22T08:10:03;6.00;;;3.88;;
66145;SDS011;52948;60.040;30.320;2023-12-22T08:15:05;5.15;;;4.07;;
66145;SDS011;52948;60.040;30.320;2023-12-22T08:20:09;5.93;;;5.10;;
66145;SDS011;52948;60.040;30.320;2023-12-22T08:25:14;5.40;;;3.58;;
66145;SDS011;52948;60.040;30.320;2023-12-22T08:30:18;6.00;;;4.55;;
66145;SDS011;52948;60.040;30.320;2023-12-22T08:35:21;5.47;;;3.88;;
66145;SDS011;52948;60.040;30.320;2023-12-22T08:40:24;4.45;;;3.35;;
66145;SDS011;52948;60.040;30.320;2023-12-22T08:45:28;4.60;;;3.08;;
66145;SDS011;52948;60.040;30.320;2023-12-22T08:50:30;6.63;;;4.00;;
66145;SDS011;52948;60.040;30.320;2023-12-22T08:55:34;4.80;;;3.20;;
66145;SDS011;52948;60.040;30.320;2023-12-22T09:00:36;4.38;;;3.38;;
66145;SDS011;52948;60.040;30.320;2023-12-22T09:05:39;5.70;;;3.33;;
66145;SDS011;52948;60.040;30.320;2023-12-22T09:10:43;4.63;;;3.03;;
66145;SDS011;52948;60.040;30.320;2023-12-22T09:15:46;5.60;;;3.63;;
66145;SDS011;52948;60.040;30.320;2023-12-22T09:20:50;5.75;;;3.83;;
66145;SDS011;52948;60.040;30.320;2023-12-22T09:25:54;4.55;;;3.28;;
66145;SDS011;52948;60.040;30.320;2023-12-22T09:30:57;3.97;;;3.08;;
66145;SDS011;52948;60.040;30.320;2023-12-22T09:36:01;3.95;;;3.08;;
66145;SDS011;52948;60.040;30.320;2023-12-22T09:41:04;4.32;;;3.30;;
66145;SDS011;52948;60.040;30.320;2023-12-22T09:46:06;4.65;;;3.15;;
66145;SDS011;52948;60.040;30.320;2023-12-22T09:51:14;3.95;;;2.78;;
66145;SDS011;52948;60.040;30.320;2023-12-22T09:56:19;4.72;;;3.58;;
66145;SDS011;52948;60.040;30.320;2023-12-22T10:01:23;3.60;;;2.83;;
66145;SDS011;52948;60.040;30.320;2023-12-22T10:06:27;4.78;;;3.30;;
66145;SDS011;52948;60.040;30.320;2023-12-22T10:11:31;4.70;;;2.63;;
66145;SDS011;52948;60.040;30.320;2023-12-22T10:16:35;3.85;;;2.47;;
66145;SDS011;52948;60.040;30.320;2023-12-22T10:21:40;4.63;;;2.67;;
66145;SDS011;52948;60.040;30.320;2023-12-22T10:26:42;2.92;;;2.40;;
66145;SDS011;52948;60.040;30.320;2023-12-22T10:31:45;4.65;;;2.72;;
66145;SDS011;52948;60.040;30.320;2023-12-22T10:36:48;3.88;;;2.38;;
66145;SDS011;52948;60.040;30.320;2023-12-22T10:41:51;3.85;;;2.97;;
66145;SDS011;52948;60.040;30.320;2023-12-22T10:46:55;4.28;;;2.28;;
66145;SDS011;52948;60.040;30.320;2023-12-22T10:51:58;3.97;;;2.80;;
66145;SDS011;52948;60.040;30.320;2023-12-22T10:57:00;3.15;;;2.50;;
66145;SDS011;52948;60.040;30.320;2023-12-22T11:02:03;5.28;;;3.40;;
66145;SDS011;52948;60.040;30.320;2023-12-22T11:07:05;2.55;;;1.48;;
66145;SDS011;52948;60.040;30.320;2023-12-22T11:12:08;1.90;;;1.20;;
66145;SDS011;52948;60.040;30.320;2023-12-22T11:17:11;1.85;;;1.13;;
66145;SDS011;52948;60.040;30.320;2023-12-22T11:22:16;1.52;;;1.10;;
66145;SDS011;52948;60.040;30.320;2023-12-22T11:27:20;2.55;;;1.63;;
66145;SDS011;52948;60.040;30.320;2023-12-22T11:32:23;1.85;;;1.38;;
66145;SDS011;52948;60.040;30.320;2023-12-22T11:37:26;2.83;;;1.60;;
66145;SDS011;52948;60.040;30.320;2023-12-22T11:42:29;2.50;;;1.60;;
66145;SDS011;52948;60.040;30.320;2023-12-22T11:47:34;2.53;;;1.30;;
66145;SDS011;52948;60.040;30.320;2023-12-22T11:52:36;1.88;;;1.23;;
66145;SDS011;52948;60.040;30.320;2023-12-22T11:57:40;1.35;;;1.00;;
66145;SDS011;52948;60.040;30.320;2023-12-22T12:02:42;2.20;;;1.20;;
66145;SDS011;52948;60.040;30.320;2023-12-22T12:08:02;3.45;;;1.98;;
66145;SDS011;52948;60.040;30.320;2023-12-22T12:13:09;3.22;;;1.52;;
66145;SDS011;52948;60.040;30.320;2023-12-22T12:18:12;2.88;;;1.13;;
66145;SDS011;52948;60.040;30.320;2023-12-22T12:23:17;4.15;;;1.73;;
66145;SDS011;52948;60.040;30.320;2023-12-22T12:28:24;2.35;;;0.93;;
66145;SDS011;52948;60.040;30.320;2023-12-22T12:33:27;3.83;;;2.22;;
66145;SDS011;52948;60.040;30.320;2023-12-22T12:38:43;3.88;;;1.85;;
66145;SDS011;52948;60.040;30.320;2023-12-22T12:43:51;2.92;;;1.90;;
66145;SDS011;52948;60.040;30.320;2023-12-22T12:49:09;2.55;;;2.03;;
66145;SDS011;52948;60.040;30.320;2023-12-22T12:54:16;3.20;;;2.40;;
66145;SDS011;52948;60.040;30.320;2023-12-22T12:59:20;2.20;;;1.70;;
66145;SDS011;52948;60.040;30.320;2023-12-22T13:04:22;3.65;;;1.85;;
66145;SDS011;52948;60.040;30.320;2023-12-22T13:09:31;2.38;;;1.98;;
66145;SDS011;52948;60.040;30.320;2023-12-22T13:14:35;3.55;;;2.13;;
66145;SDS011;52948;60.040;30.320;2023-12-22T13:19:37;2.10;;;1.88;;
66145;SDS011;52948;60.040;30.320;2023-12-22T13:24:42;3.00;;;2.10;;
66145;SDS011;52948;60.040;30.320;2023-12-22T13:29:56;2.65;;;2.20;;
66145;SDS011;52948;60.040;30.320;2023-12-22T13:34:59;4.00;;;2.53;;
66145;SDS011;52948;60.040;30.320;2023-12-22T13:40:06;2.65;;;1.90;;
66145;SDS011;52948;60.040;30.320;2023-12-22T13:45:10;3.72;;;2.50;;
66145;SDS011;52948;60.040;30.320;2023-12-22T13:50:16;3.13;;;2.80;;
66145;SDS011;52948;60.040;30.320;2023-12-22T13:55:22;3.30;;;2.30;;
66145;SDS011;52948;60.040;30.320;2023-12-22T14:00:28;2.40;;;2.00;;
66145;SDS011;52948;60.040;30.320;2023-12-22T14:05:31;3.75;;;2.58;;
66145;SDS011;52948;60.040;30.320;2023-12-22T14:10:35;3.55;;;2.50;;
66145;SDS011;52948;60.040;30.320;2023-12-22T14:15:38;3.40;;;2.60;;
66145;SDS011;52948;60.040;30.320;2023-12-22T14:20:41;3.30;;;2.40;;
66145;SDS011;52948;60.040;30.320;2023-12-22T14:25:45;3.38;;;2.35;;
66145;SDS011;52948;60.040;30.320;2023-12-22T14:30:47;2.63;;;2.40;;
66145;SDS011;52948;60.040;30.320;2023-12-22T14:35:51;3.72;;;2.40;;
66145;SDS011;52948;60.040;30.320;2023-12-22T14:40:54;2.03;;;1.70;;
66145;SDS011;52948;60.040;30.320;2023-12-22T14:45:56;3.22;;;2.45;;
66145;SDS011;52948;60.040;30.320;2023-12-22T14:50:58;2.97;;;2.35;;
66145;SDS011;52948;60.040;30.320;2023-12-22T14:56:01;3.50;;;2.50;;
66145;SDS011;52948;60.040;30.320;2023-12-22T15:01:03;2.88;;;2.20;;
66145;SDS011;52948;60.040;30.320;2023-12-22T15:06:06;2.67;;;2.40;;
66145;SDS011;52948;60.040;30.320;2023-12-22T15:11:08;8.82;;;4.88;;
66145;SDS011;52948;60.040;30.320;2023-12-22T15:16:10;11.85;;;5.63;;
66145;SDS011;52948;60.040;30.320;2023-12-22T15:21:20;14.07;;;7.30;;
66145;SDS011;52948;60.040;30.320;2023-12-22T15:26:26;15.63;;;7.75;;
66145;SDS011;52948;60.040;30.320;2023-12-22T15:31:29;10.13;;;5.80;;
66145;SDS011;52948;60.040;30.320;2023-12-22T15:36:32;6.18;;;3.75;;
66145;SDS011;52948;60.040;30.320;2023-12-22T15:41:35;8.65;;;4.80;;
66145;SDS011;52948;60.040;30.320;2023-12-22T15:46:37;7.03;;;3.63;;
66145;SDS011;52948;60.040;30.320;2023-12-22T15:51:39;5.75;;;3.47;;
66145;SDS011;52948;60.040;30.320;2023-12-22T15:56:43;5.15;;;3.05;;
66145;SDS011;52948;60.040;30.320;2023-12-22T16:01:45;3.75;;;3.15;;
66145;SDS011;52948;60.040;30.320;2023-12-22T16:06:48;4.18;;;3.08;;
66145;SDS011;52948;60.040;30.320;2023-12-22T16:11:51;3.58;;;2.88;;
66145;SDS011;52948;60.040;30.320;2023-12-22T16:16:54;3.78;;;2.85;;
66145;SDS011;52948;60.040;30.320;2023-12-22T16:21:57;3.65;;;2.63;;
66145;SDS011;52948;60.040;30.320;2023-12-22T16:27:00;2.25;;;2.05;;
66145;SDS011;52948;60.040;30.320;2023-12-22T16:32:03;9.90;;;3.47;;
66145;SDS011;52948;60.040;30.320;2023-12-22T16:37:07;2.67;;;2.20;;
66145;SDS011;52948;60.040;30.320;2023-12-22T16:42:10;3.50;;;2.88;;
66145;SDS011;52948;60.040;30.320;2023-12-22T16:47:12;5.65;;;3.60;;
66145;SDS011;52948;60.040;30.320;2023-12-22T16:52:14;5.80;;;3.88;;
66145;SDS011;52948;60.040;30.320;2023-12-22T16:57:17;4.32;;;3.35;;
66145;SDS011;52948;60.040;30.320;2023-12-22T17:02:20;3.90;;;3.00;;
66145;SDS011;52948;60.040;30.320;2023-12-22T17:07:22;5.63;;;3.83;;
66145;SDS011;52948;60.040;30.320;2023-12-22T17:12:24;5.63;;;3.38;;
66145;SDS011;52948;60.040;30.320;2023-12-22T17:17:27;4.25;;;3.10;;
66145;SDS011;52948;60.040;30.320;2023-12-22T17:22:29;3.95;;;3.10;;
66145;SDS011;52948;60.040;30.320;2023-12-22T17:27:32;4.85;;;3.60;;
66145;SDS011;52948;60.040;30.320;2023-12-22T17:32:34;5.35;;;3.00;;
66145;SDS011;52948;60.040;30.320;2023-12-22T17:37:37;4.43;;;2.83;;
66145;SDS011;52948;60.040;30.320;2023-12-22T17:42:39;4.35;;;3.40;;
66145;SDS011;52948;60.040;30.320;2023-12-22T17:47:43;4.80;;;3.30;;
66145;SDS011;52948;60.040;30.320;2023-12-22T17:52:45;5.10;;;3.80;;
66145;SDS011;52948;60.040;30.320;2023-12-22T17:57:48;3.05;;;2.58;;
66145;SDS011;52948;60.040;30.320;2023-12-22T18:02:50;3.38;;;2.33;;
66145;SDS011;52948;60.040;30.320;2023-12-22T18:07:53;5.82;;;2.42;;
66145;SDS011;52948;60.040;30.320;2023-12-22T18:12:55;5.93;;;3.65;;
66145;SDS011;52948;60.040;30.320;2023-12-22T18:17:57;4.28;;;3.17;;
66145;SDS011;52948;60.040;30.320;2023-12-22T18:22:59;3.67;;;2.65;;
66145;SDS011;52948;60.040;30.320;2023-12-22T18:28:02;5.63;;;4.00;;
66145;SDS011;52948;60.040;30.320;2023-12-22T18:33:04;4.68;;;2.72;;
66145;SDS011;52948;60.040;30.320;2023-12-22T18:38:07;4.68;;;3.60;;
66145;SDS011;52948;60.040;30.320;2023-12-22T18:43:10;6.75;;;4.25;;
66145;SDS011;52948;60.040;30.320;2023-12-22T18:48:12;6.07;;;4.03;;
66145;SDS011;52948;60.040;30.320;2023-12-22T18:53:14;5.28;;;3.22;;
66145;SDS011;52948;60.040;30.320;2023-12-22T18:58:18;3.33;;;2.90;;
66145;SDS011;52948;60.040;30.320;2023-12-22T19:03:22;4.95;;;3.38;;
66145;SDS011;52948;60.040;30.320;2023-12-22T19:08:25;6.30;;;3.65;;
66145;SDS011;52948;60.040;30.320;2023-12-22T19:13:27;3.65;;;2.90;;
66145;SDS011;52948;60.040;30.320;2023-12-22T19:18:32;3.85;;;2.95;;
66145;SDS011;52948;60.040;30.320;2023-12-22T19:23:35;7.15;;;4.35;;
66145;SDS011;52948;60.040;30.320;2023-12-22T19:28:37;3.30;;;2.60;;
66145;SDS011;52948;60.040;30.320;2023-12-22T19:33:40;3.30;;;2.17;;
66145;SDS011;52948;60.040;30.320;2023-12-22T19:38:43;2.80;;;2.45;;
66145;SDS011;52948;60.040;30.320;2023-12-22T19:43:45;3.40;;;2.20;;
66145;SDS011;52948;60.040;30.320;2023-12-22T19:48:48;3.80;;;2.15;;
66145;SDS011;52948;60.040;30.320;2023-12-22T19:53:51;2.53;;;2.00;;
66145;SDS011;52948;60.040;30.320;2023-12-22T19:58:54;2.92;;;1.88;;
66145;SDS011;52948;60.040;30.320;2023-12-22T20:03:57;5.32;;;2.20;;
66145;SDS011;52948;60.040;30.320;2023-12-22T20:09:01;3.13;;;2.20;;
66145;SDS011;52948;60.040;30.320;2023-12-22T20:14:03;1.38;;;1.27;;
66145;SDS011;52948;60.040;30.320;2023-12-22T20:19:08;2.33;;;1.70;;
66145;SDS011;52948;60.040;30.320;2023-12-22T20:24:10;1.75;;;1.13;;
66145;SDS011;52948;60.040;30.320;2023-12-22T20:29:13;2.00;;;1.40;;
66145;SDS011;52948;60.040;30.320;2023-12-22T20:34:15;2.10;;;1.70;;
66145;SDS011;52948;60.040;30.320;2023-12-22T20:39:18;2.15;;;1.80;;
66145;SDS011;52948;60.040;30.320;2023-12-22T20:44:21;3.70;;;1.77;;
66145;SDS011;52948;60.040;30.320;2023-12-22T20:49:27;2.60;;;1.85;;
66145;SDS011;52948;60.040;30.320;2023-12-22T20:54:31;2.33;;;1.60;;
66145;SDS011;52948;60.040;30.320;2023-12-22T20:59:35;2.67;;;1.63;;
66145;SDS011;52948;60.040;30.320;2023-12-22T21:04:39;2.03;;;1.65;;
66145;SDS011;52948;60.040;30.320;2023-12-22T21:09:42;1.92;;;1.13;;
66145;SDS011;52948;60.040;30.320;2023-12-22T21:14:45;2.88;;;1.75;;
66145;SDS011;52948;60.040;30.320;2023-12-22T21:19:48;1.95;;;1.50;;
66145;SDS011;52948;60.040;30.320;2023-12-22T21:24:50;1.30;;;1.20;;
66145;SDS011;52948;60.040;30.320;2023-12-22T21:29:52;1.52;;;1.42;;
66145;SDS011;52948;60.040;30.320;2023-12-22T21:34:54;2.47;;;1.45;;
66145;SDS011;52948;60.040;30.320;2023-12-22T21:39:57;1.63;;;1.17;;
66145;SDS011;52948;60.040;30.320;2023-12-22T21:44:59;1.20;;;1.10;;
66145;SDS011;52948;60.040;30.320;2023-12-22T21:50:02;1.73;;;1.48;;
66145;SDS011;52948;60.040;30.320;2023-12-22T21:55:05;1.05;;;0.95;;
66145;SDS011;52948;60.040;30.320;2023-12-22T22:00:09;1.00;;;0.90;;
66145;SDS011;52948;60.040;30.320;2023-12-22T22:05:12;1.60;;;0.98;;
66145;SDS011;52948;60.040;30.320;2023-12-22T22:10:14;1.00;;;0.77;;
66145;SDS011;52948;60.040;30.320;2023-12-22T22:15:17;2.50;;;1.15;;
66145;SDS011;52948;60.040;30.320;2023-12-22T22:20:20;0.75;;;0.75;;
66145;SDS011;52948;60.040;30.320;2023-12-22T22:25:22;1.13;;;1.02;;
66145;SDS011;52948;60.040;30.320;2023-12-22T22:30:24;1.23;;;1.00;;
66145;SDS011;52948;60.040;30.320;2023-12-22T22:35:28;0.93;;;0.93;;
66145;SDS011;52948;60.040;30.320;2023-12-22T22:40:31;1.02;;;0.88;;
66145;SDS011;52948;60.040;30.320;2023-12-22T22:45:33;1.63;;;1.10;;
66145;SDS011;52948;60.040;30.320;2023-12-22T22:50:36;1.20;;;0.98;;
66145;SDS011;52948;60.040;30.320;2023-12-22T22:55:38;3.20;;;1.40;;
66145;SDS011;52948;60.040;30.320;2023-12-22T23:00:41;4.05;;;1.60;;
66145;SDS011;52948;60.040;30.320;2023-12-22T23:05:44;1.60;;;1.50;;
66145;SDS011;52948;60.040;30.320;2023-12-22T23:10:48;1.58;;;1.30;;
66145;SDS011;52948;60.040;30.320;2023-12-22T23:15:50;1.90;;;1.42;;
66145;SDS011;52948;60.040;30.320;2023-12-22T23:20:53;1.30;;;1.20;;
66145;SDS011;52948;60.040;30.320;2023-12-22T23:25:55;1.67;;;1.35;;
66145;SDS011;52948;60.040;30.320;2023-12-22T23:30:58;1.63;;;1.20;;
66145;SDS011;52948;60.040;30.320;2023-12-22T23:36:01;1.65;;;1.35;;
66145;SDS011;52948;60.040;30.320;2023-12-22T23:41:05;1.42;;;1.33;;
66145;SDS011;52948;60.040;30.320;2023-12-22T23:46:07;2.15;;;1.35;;
66145;SDS011;52948;60.040;30.320;2023-12-22T23:51:11;1.20;;;1.10;;
66145;SDS011;52948;60.040;30.320;2023-12-22T23:56:15;1.55;;;1.45;;
